sensor_id;sensor_type;location;lat;lon;timestamp;temperature;humidity
13205;DHT22;6667;52.634;9.226;2022-10-22T08:03:44;15.10;99.90
13205;DHT22;6667;52.634;9.226;2022-10-22T08:06:12;15.10;99.90
13205;DHT22;6667;52.634;9.226;2022-10-22T08:08:39;15.40;99.90
13205;DHT22;6667;52.634;9.226;2022-10-22T08:11:06;15.60;99.90
13205;DHT22;6667;52.634;9.226;2022-10-22T08:13:32;15.80;99.90
13205;DHT22;6667;52.634;9.226;2022-10-22T08:16:00;16.00;99.90
13205;DHT22;6667;52.634;9.226;2022-10-22T08:18:27;16.20;99.90
13205;DHT22;6667;52.634;9.226;2022-10-22T08:20:56;16.60;99.90
13205;DHT22;6667;52.634;9.226;2022-10-22T08:23:23;16.70;99.90
13205;DHT22;6667;52.634;9.226;2022-10-22T08:25:50;17.00;99.90
13205;DHT22;6667;52.634;9.226;2022-10-22T08:28:16;17.20;99.90
13205;DHT22;6667;52.634;9.226;2022-10-22T08:30:43;17.40;99.90
13205;DHT22;6667;52.634;9.226;2022-10-22T08:33:12;17.30;99.90
13205;DHT22;6667;52.634;9.226;2022-10-22T08:35:39;17.30;99.90
13205;DHT22;6667;52.634;9.226;2022-10-22T08:38:07;17.40;99.90
13205;DHT22;6667;52.634;9.226;2022-10-22T08:40:37;17.60;99.90
13205;DHT22;6667;52.634;9.226;2022-10-22T08:43:24;17.70;99.90
13205;DHT22;6667;52.634;9.226;2022-10-22T08:46:09;18.00;99.90
13205;DHT22;6667;52.634;9.226;2022-10-22T08:48:43;18.20;99.90
13205;DHT22;6667;52.634;9.226;2022-10-22T08:51:14;18.20;99.90
13205;DHT22;6667;52.634;9.226;2022-10-22T08:53:50;18.50;99.90
13205;DHT22;6667;52.634;9.226;2022-10-22T08:56:21;18.80;99.90
13205;DHT22;6667;52.634;9.226;2022-10-22T08:58:52;19.00;99.90
13205;DHT22;6667;52.634;9.226;2022-10-22T09:01:21;19.10;99.90
13205;DHT22;6667;52.634;9.226;2022-10-22T09:03:52;19.20;99.90
13205;DHT22;6667;52.634;9.226;2022-10-22T09:06:24;19.40;99.90
13205;DHT22;6667;52.634;9.226;2022-10-22T09:08:52;19.40;99.90
13205;DHT22;6667;52.634;9.226;2022-10-22T09:11:26;19.50;99.90
13205;DHT22;6667;52.634;9.226;2022-10-22T09:13:54;19.50;99.90
13205;DHT22;6667;52.634;9.226;2022-10-22T09:16:29;19.70;99.90
13205;DHT22;6667;52.634;9.226;2022-10-22T09:19:05;19.90;99.90
13205;DHT22;6667;52.634;9.226;2022-10-22T09:21:40;20.20;99.90
13205;DHT22;6667;52.634;9.226;2022-10-22T09:24:11;20.10;99.90
13205;DHT22;6667;52.634;9.226;2022-10-22T09:26:39;20.60;99.90
13205;DHT22;6667;52.634;9.226;2022-10-22T09:29:13;20.70;99.90
13205;DHT22;6667;52.634;9.226;2022-10-22T09:31:42;20.50;99.90
13205;DHT22;6667;52.634;9.226;2022-10-22T09:34:13;20.40;99.90
13205;DHT22;6667;52.634;9.226;2022-10-22T09:36:40;20.40;99.90
13205;DHT22;6667;52.634;9.226;2022-10-22T09:39:21;20.30;99.90
13205;DHT22;6667;52.634;9.226;2022-10-22T09:41:48;20.20;99.90
13205;DHT22;6667;52.634;9.226;2022-10-22T09:44:16;20.30;99.90
13205;DHT22;6667;52.634;9.226;2022-10-22T09:46:43;20.40;99.90
13205;DHT22;6667;52.634;9.226;2022-10-22T09:49:13;20.50;99.90
13205;DHT22;6667;52.634;9.226;2022-10-22T09:51:48;20.80;99.90
13205;DHT22;6667;52.634;9.226;2022-10-22T09:54:19;20.80;99.90
13205;DHT22;6667;52.634;9.226;2022-10-22T09:56:50;21.00;99.90
13205;DHT22;6667;52.634;9.226;2022-10-22T09:59:25;21.00;99.90
13205;DHT22;6667;52.634;9.226;2022-10-22T10:01:56;20.80;99.90
13205;DHT22;6667;52.634;9.226;2022-10-22T10:04:23;21.00;99.90
13205;DHT22;6667;52.634;9.226;2022-10-22T10:06:53;21.20;99.90
13205;DHT22;6667;52.634;9.226;2022-10-22T10:09:24;21.30;99.90
13205;DHT22;6667;52.634;9.226;2022-10-22T10:11:58;21.10;99.90
13205;DHT22;6667;52.634;9.226;2022-10-22T10:14:33;21.20;99.90
13205;DHT22;6667;52.634;9.226;2022-10-22T10:17:10;21.50;99.90
13205;DHT22;6667;52.634;9.226;2022-10-22T10:19:52;21.40;99.90
13205;DHT22;6667;52.634;9.226;2022-10-22T10:22:36;21.30;99.90
13205;DHT22;6667;52.634;9.226;2022-10-22T10:25:38;21.70;99.90
13205;DHT22;6667;52.634;9.226;2022-10-22T10:28:16;21.90;99.90
13205;DHT22;6667;52.634;9.226;2022-10-22T10:30:52;21.60;99.90
13205;DHT22;6667;52.634;9.226;2022-10-22T10:33:27;21.50;99.90
13205;DHT22;6667;52.634;9.226;2022-10-22T10:36:01;21.40;99.90
13205;DHT22;6667;52.634;9.226;2022-10-22T10:38:41;21.70;99.90
13205;DHT22;6667;52.634;9.226;2022-10-22T10:41:17;22.00;99.90
13205;DHT22;6667;52.634;9.226;2022-10-22T10:46:42;22.00;99.90
13205;DHT22;6667;52.634;9.226;2022-10-22T10:49:18;21.90;99.90
13205;DHT22;6667;52.634;9.226;2022-10-22T10:51:52;22.20;99.90
13205;DHT22;6667;52.634;9.226;2022-10-22T10:54:29;21.70;99.90
13205;DHT22;6667;52.634;9.226;2022-10-22T10:57:02;21.50;99.90
13205;DHT22;6667;52.634;9.226;2022-10-22T10:59:44;21.20;99.90
13205;DHT22;6667;52.634;9.226;2022-10-22T11:05:29;21.80;99.90
13205;DHT22;6667;52.634;9.226;2022-10-22T11:07:59;21.80;99.90
13205;DHT22;6667;52.634;9.226;2022-10-22T11:10:29;21.60;99.90
13205;DHT22;6667;52.634;9.226;2022-10-22T11:13:03;21.60;99.90
13205;DHT22;6667;52.634;9.226;2022-10-22T11:15:34;21.90;99.90
13205;DHT22;6667;52.634;9.226;2022-10-22T11:18:07;22.20;99.90
13205;DHT22;6667;52.634;9.226;2022-10-22T11:20:43;22.20;99.90
13205;DHT22;6667;52.634;9.226;2022-10-22T11:23:15;22.50;99.90
13205;DHT22;6667;52.634;9.226;2022-10-22T11:25:44;22.30;99.90
13205;DHT22;6667;52.634;9.226;2022-10-22T11:28:16;21.50;99.90
13205;DHT22;6667;52.634;9.226;2022-10-22T11:30:46;21.10;99.90
13205;DHT22;6667;52.634;9.226;2022-10-22T11:33:18;21.20;99.90
13205;DHT22;6667;52.634;9.226;2022-10-22T11:35:47;21.30;99.90
13205;DHT22;6667;52.634;9.226;2022-10-22T11:38:19;21.30;99.90
13205;DHT22;6667;52.634;9.226;2022-10-22T11:40:55;21.00;99.90
13205;DHT22;6667;52.634;9.226;2022-10-22T11:43:28;21.00;99.90
13205;DHT22;6667;52.634;9.226;2022-10-22T11:46:00;20.90;99.90
13205;DHT22;6667;52.634;9.226;2022-10-22T11:48:34;20.70;99.90
13205;DHT22;6667;52.634;9.226;2022-10-22T11:51:02;20.70;99.90
13205;DHT22;6667;52.634;9.226;2022-10-22T11:53:31;20.90;99.90
13205;DHT22;6667;52.634;9.226;2022-10-22T11:56:03;21.00;99.90
13205;DHT22;6667;52.634;9.226;2022-10-22T11:58:47;20.60;99.90
13205;DHT22;6667;52.634;9.226;2022-10-22T12:01:21;20.20;99.90
13205;DHT22;6667;52.634;9.226;2022-10-22T12:03:50;20.20;99.90
13205;DHT22;6667;52.634;9.226;2022-10-22T12:06:20;20.20;99.90
13205;DHT22;6667;52.634;9.226;2022-10-22T12:08:53;20.00;99.90
13205;DHT22;6667;52.634;9.226;2022-10-22T12:11:23;19.80;99.90
13205;DHT22;6667;52.634;9.226;2022-10-22T12:14:18;19.80;99.90
13205;DHT22;6667;52.634;9.226;2022-10-22T12:16:46;20.10;99.90
13205;DHT22;6667;52.634;9.226;2022-10-22T12:19:23;20.40;99.90
13205;DHT22;6667;52.634;9.226;2022-10-22T12:21:52;20.40;99.90
13205;DHT22;6667;52.634;9.226;2022-10-22T12:24:22;20.20;99.90
13205;DHT22;6667;52.634;9.226;2022-10-22T12:26:49;20.00;99.90
13205;DHT22;6667;52.634;9.226;2022-10-22T12:29:20;19.90;99.90
13205;DHT22;6667;52.634;9.226;2022-10-22T12:31:48;19.90;99.90
13205;DHT22;6667;52.634;9.226;2022-10-22T12:34:17;19.80;99.90
13205;DHT22;6667;52.634;9.226;2022-10-22T12:36:46;19.70;99.90
13205;DHT22;6667;52.634;9.226;2022-10-22T12:39:15;20.00;99.90
13205;DHT22;6667;52.634;9.226;2022-10-22T12:41:42;20.20;99.90
13205;DHT22;6667;52.634;9.226;2022-10-22T12:44:11;20.40;99.90
13205;DHT22;6667;52.634;9.226;2022-10-22T12:46:41;20.40;99.90
13205;DHT22;6667;52.634;9.226;2022-10-22T12:49:16;20.20;99.90
13205;DHT22;6667;52.634;9.226;2022-10-22T12:51:43;19.90;99.90
13205;DHT22;6667;52.634;9.226;2022-10-22T12:54:21;20.00;99.90
13205;DHT22;6667;52.634;9.226;2022-10-22T12:56:49;19.90;99.90
13205;DHT22;6667;52.634;9.226;2022-10-22T12:59:19;19.70;99.90
13205;DHT22;6667;52.634;9.226;2022-10-22T13:01:49;19.70;99.90
13205;DHT22;6667;52.634;9.226;2022-10-22T13:04:22;19.70;99.90
13205;DHT22;6667;52.634;9.226;2022-10-22T13:07:05;19.90;99.90
13205;DHT22;6667;52.634;9.226;2022-10-22T13:09:37;20.10;99.90
13205;DHT22;6667;52.634;9.226;2022-10-22T13:12:06;20.20;99.90
13205;DHT22;6667;52.634;9.226;2022-10-22T13:14:37;20.00;99.90
13205;DHT22;6667;52.634;9.226;2022-10-22T13:17:08;20.00;99.90
13205;DHT22;6667;52.634;9.226;2022-10-22T13:19:40;19.90;99.90
13205;DHT22;6667;52.634;9.226;2022-10-22T13:22:31;19.80;99.90
13205;DHT22;6667;52.634;9.226;2022-10-22T13:25:19;19.70;99.90
13205;DHT22;6667;52.634;9.226;2022-10-22T13:27:47;19.80;99.90
13205;DHT22;6667;52.634;9.226;2022-10-22T13:30:19;19.90;99.90
13205;DHT22;6667;52.634;9.226;2022-10-22T13:32:51;20.00;99.90
13205;DHT22;6667;52.634;9.226;2022-10-22T13:35:23;20.00;99.90
13205;DHT22;6667;52.634;9.226;2022-10-22T13:37:50;19.80;99.90
13205;DHT22;6667;52.634;9.226;2022-10-22T13:40:17;19.70;99.90
13205;DHT22;6667;52.634;9.226;2022-10-22T13:42:44;19.60;99.90
13205;DHT22;6667;52.634;9.226;2022-10-22T13:45:11;19.60;99.90
13205;DHT22;6667;52.634;9.226;2022-10-22T13:47:39;19.40;99.90
13205;DHT22;6667;52.634;9.226;2022-10-22T13:50:12;19.30;99.90
13205;DHT22;6667;52.634;9.226;2022-10-22T13:52:41;19.40;99.90
13205;DHT22;6667;52.634;9.226;2022-10-22T13:55:14;19.40;99.90
13205;DHT22;6667;52.634;9.226;2022-10-22T13:57:41;19.40;99.90
13205;DHT22;6667;52.634;9.226;2022-10-22T14:00:11;19.40;99.90
13205;DHT22;6667;52.634;9.226;2022-10-22T14:02:38;19.30;99.90
13205;DHT22;6667;52.634;9.226;2022-10-22T14:05:06;19.20;99.90
13205;DHT22;6667;52.634;9.226;2022-10-22T14:07:35;19.10;99.90
13205;DHT22;6667;52.634;9.226;2022-10-22T14:10:02;19.20;99.90
13205;DHT22;6667;52.634;9.226;2022-10-22T14:12:31;19.10;99.90
13205;DHT22;6667;52.634;9.226;2022-10-22T14:14:58;19.10;99.90
13205;DHT22;6667;52.634;9.226;2022-10-22T14:17:25;19.10;99.90
13205;DHT22;6667;52.634;9.226;2022-10-22T14:19:53;19.00;99.90
13205;DHT22;6667;52.634;9.226;2022-10-22T14:22:20;19.00;99.90
13205;DHT22;6667;52.634;9.226;2022-10-22T14:24:50;18.90;99.90
13205;DHT22;6667;52.634;9.226;2022-10-22T14:27:19;18.70;99.90
13205;DHT22;6667;52.634;9.226;2022-10-22T14:29:45;18.70;99.90
13205;DHT22;6667;52.634;9.226;2022-10-22T14:32:14;18.70;99.90
13205;DHT22;6667;52.634;9.226;2022-10-22T14:34:41;18.70;99.90
13205;DHT22;6667;52.634;9.226;2022-10-22T14:37:15;18.60;99.90
13205;DHT22;6667;52.634;9.226;2022-10-22T14:39:42;18.40;99.90
13205;DHT22;6667;52.634;9.226;2022-10-22T14:42:12;18.40;99.90
13205;DHT22;6667;52.634;9.226;2022-10-22T14:44:41;18.40;99.90
13205;DHT22;6667;52.634;9.226;2022-10-22T14:47:07;18.40;99.90
13205;DHT22;6667;52.634;9.226;2022-10-22T14:49:34;18.30;99.90
13205;DHT22;6667;52.634;9.226;2022-10-22T14:52:01;18.40;99.90
13205;DHT22;6667;52.634;9.226;2022-10-22T14:54:27;18.30;99.90
13205;DHT22;6667;52.634;9.226;2022-10-22T14:56:54;18.30;99.90
13205;DHT22;6667;52.634;9.226;2022-10-22T14:59:22;18.30;99.90
13205;DHT22;6667;52.634;9.226;2022-10-22T15:01:49;18.30;99.90
13205;DHT22;6667;52.634;9.226;2022-10-22T15:04:16;18.20;99.90
13205;DHT22;6667;52.634;9.226;2022-10-22T15:06:42;18.20;99.90
13205;DHT22;6667;52.634;9.226;2022-10-22T15:09:09;18.10;99.90
13205;DHT22;6667;52.634;9.226;2022-10-22T15:11:36;18.20;99.90
13205;DHT22;6667;52.634;9.226;2022-10-22T15:14:02;18.00;99.90
13205;DHT22;6667;52.634;9.226;2022-10-22T15:16:30;17.80;99.90
13205;DHT22;6667;52.634;9.226;2022-10-22T15:18:57;17.70;99.90
13205;DHT22;6667;52.634;9.226;2022-10-22T15:21:25;17.50;99.90
13205;DHT22;6667;52.634;9.226;2022-10-22T15:23:52;17.50;99.90
13205;DHT22;6667;52.634;9.226;2022-10-22T15:26:18;17.50;99.90
13205;DHT22;6667;52.634;9.226;2022-10-22T15:28:45;17.40;99.90
13205;DHT22;6667;52.634;9.226;2022-10-22T15:31:12;17.40;99.90
13205;DHT22;6667;52.634;9.226;2022-10-22T15:33:41;17.30;99.90
13205;DHT22;6667;52.634;9.226;2022-10-22T15:36:09;17.30;99.90
13205;DHT22;6667;52.634;9.226;2022-10-22T15:38:36;17.20;99.90
13205;DHT22;6667;52.634;9.226;2022-10-22T15:41:05;17.00;99.90
13205;DHT22;6667;52.634;9.226;2022-10-22T15:43:32;17.00;99.90
13205;DHT22;6667;52.634;9.226;2022-10-22T15:46:09;16.90;99.90
13205;DHT22;6667;52.634;9.226;2022-10-22T15:48:35;16.90;99.90
13205;DHT22;6667;52.634;9.226;2022-10-22T15:51:08;16.80;99.90
13205;DHT22;6667;52.634;9.226;2022-10-22T15:53:35;16.80;99.90
13205;DHT22;6667;52.634;9.226;2022-10-22T15:56:02;16.70;99.90
13205;DHT22;6667;52.634;9.226;2022-10-22T15:58:29;16.70;99.90
13205;DHT22;6667;52.634;9.226;2022-10-22T16:01:03;16.70;99.90
13205;DHT22;6667;52.634;9.226;2022-10-22T16:03:30;16.60;99.90
13205;DHT22;6667;52.634;9.226;2022-10-22T16:05:57;16.50;99.90
13205;DHT22;6667;52.634;9.226;2022-10-22T16:08:25;16.50;99.90
13205;DHT22;6667;52.634;9.226;2022-10-22T16:10:52;16.50;99.90
13205;DHT22;6667;52.634;9.226;2022-10-22T16:13:19;16.40;99.90
13205;DHT22;6667;52.634;9.226;2022-10-22T16:15:48;16.40;99.90
13205;DHT22;6667;52.634;9.226;2022-10-22T16:18:14;16.40;99.90
13205;DHT22;6667;52.634;9.226;2022-10-22T16:20:41;16.30;99.90
13205;DHT22;6667;52.634;9.226;2022-10-22T16:23:08;16.30;99.90
13205;DHT22;6667;52.634;9.226;2022-10-22T16:25:38;16.30;99.90
13205;DHT22;6667;52.634;9.226;2022-10-22T16:28:05;16.30;99.90
13205;DHT22;6667;52.634;9.226;2022-10-22T16:30:32;16.30;99.90
13205;DHT22;6667;52.634;9.226;2022-10-22T16:32:59;16.30;99.90
13205;DHT22;6667;52.634;9.226;2022-10-22T16:35:26;16.30;99.90
13205;DHT22;6667;52.634;9.226;2022-10-22T16:37:52;16.30;99.90
13205;DHT22;6667;52.634;9.226;2022-10-22T16:40:19;16.20;99.90
13205;DHT22;6667;52.634;9.226;2022-10-22T16:42:47;16.20;99.90
13205;DHT22;6667;52.634;9.226;2022-10-22T16:45:14;16.20;99.90
13205;DHT22;6667;52.634;9.226;2022-10-22T16:47:41;16.10;99.90
13205;DHT22;6667;52.634;9.226;2022-10-22T16:50:11;16.10;99.90
13205;DHT22;6667;52.634;9.226;2022-10-22T16:52:38;16.00;99.90
13205;DHT22;6667;52.634;9.226;2022-10-22T16:55:05;15.90;99.90
13205;DHT22;6667;52.634;9.226;2022-10-22T16:57:31;15.80;99.90
13205;DHT22;6667;52.634;9.226;2022-10-22T17:00:02;15.80;99.90
13205;DHT22;6667;52.634;9.226;2022-10-22T17:02:29;15.70;99.90
13205;DHT22;6667;52.634;9.226;2022-10-22T17:04:56;15.60;99.90
13205;DHT22;6667;52.634;9.226;2022-10-22T17:07:23;15.70;99.90
13205;DHT22;6667;52.634;9.226;2022-10-22T17:09:49;15.60;99.90
13205;DHT22;6667;52.634;9.226;2022-10-22T17:12:16;15.50;99.90
13205;DHT22;6667;52.634;9.226;2022-10-22T17:14:43;15.50;99.90
13205;DHT22;6667;52.634;9.226;2022-10-22T17:17:11;15.50;99.90
13205;DHT22;6667;52.634;9.226;2022-10-22T17:19:37;15.40;99.90
13205;DHT22;6667;52.634;9.226;2022-10-22T17:22:04;15.30;99.90
13205;DHT22;6667;52.634;9.226;2022-10-22T17:24:31;15.30;99.90
13205;DHT22;6667;52.634;9.226;2022-10-22T17:26:58;15.20;99.90
13205;DHT22;6667;52.634;9.226;2022-10-22T17:29:24;15.20;99.90
13205;DHT22;6667;52.634;9.226;2022-10-22T17:31:51;15.10;99.90
13205;DHT22;6667;52.634;9.226;2022-10-22T17:34:19;15.10;99.90
13205;DHT22;6667;52.634;9.226;2022-10-22T17:36:46;15.00;99.90
13205;DHT22;6667;52.634;9.226;2022-10-22T17:39:15;15.00;99.90
13205;DHT22;6667;52.634;9.226;2022-10-22T17:41:42;14.90;99.90
13205;DHT22;6667;52.634;9.226;2022-10-22T17:44:10;15.00;99.90
13205;DHT22;6667;52.634;9.226;2022-10-22T17:46:37;14.90;99.90
13205;DHT22;6667;52.634;9.226;2022-10-22T17:49:10;14.90;99.90
13205;DHT22;6667;52.634;9.226;2022-10-22T17:51:39;14.80;99.90
13205;DHT22;6667;52.634;9.226;2022-10-22T17:54:06;14.70;99.90
13205;DHT22;6667;52.634;9.226;2022-10-22T17:56:32;14.70;99.90
13205;DHT22;6667;52.634;9.226;2022-10-22T17:59:00;14.70;99.90
13205;DHT22;6667;52.634;9.226;2022-10-22T18:01:28;14.60;99.90
13205;DHT22;6667;52.634;9.226;2022-10-22T18:03:59;14.60;99.90
13205;DHT22;6667;52.634;9.226;2022-10-22T18:06:27;14.50;99.90
13205;DHT22;6667;52.634;9.226;2022-10-22T18:08:55;14.50;99.90
13205;DHT22;6667;52.634;9.226;2022-10-22T18:11:24;14.40;99.90
13205;DHT22;6667;52.634;9.226;2022-10-22T18:13:52;14.40;99.90
13205;DHT22;6667;52.634;9.226;2022-10-22T18:16:19;14.40;99.90
13205;DHT22;6667;52.634;9.226;2022-10-22T18:18:46;14.40;99.90
13205;DHT22;6667;52.634;9.226;2022-10-22T18:21:13;14.30;99.90
13205;DHT22;6667;52.634;9.226;2022-10-22T18:23:40;14.30;99.90
13205;DHT22;6667;52.634;9.226;2022-10-22T18:26:08;14.30;99.90
13205;DHT22;6667;52.634;9.226;2022-10-22T18:28:35;14.30;99.90
13205;DHT22;6667;52.634;9.226;2022-10-22T18:31:05;14.20;99.90
13205;DHT22;6667;52.634;9.226;2022-10-22T18:33:33;14.20;99.90
13205;DHT22;6667;52.634;9.226;2022-10-22T18:36:03;14.20;99.90
13205;DHT22;6667;52.634;9.226;2022-10-22T18:38:30;14.10;99.90
13205;DHT22;6667;52.634;9.226;2022-10-22T18:40:56;14.10;99.90
13205;DHT22;6667;52.634;9.226;2022-10-22T18:43:24;14.10;99.90
13205;DHT22;6667;52.634;9.226;2022-10-22T18:45:51;14.10;99.90
13205;DHT22;6667;52.634;9.226;2022-10-22T18:48:19;14.10;99.90
13205;DHT22;6667;52.634;9.226;2022-10-22T18:50:57;14.00;99.90
13205;DHT22;6667;52.634;9.226;2022-10-22T18:53:24;14.00;99.90
13205;DHT22;6667;52.634;9.226;2022-10-22T18:55:51;13.90;99.90
13205;DHT22;6667;52.634;9.226;2022-10-22T18:58:17;13.90;99.90
13205;DHT22;6667;52.634;9.226;2022-10-22T19:00:46;13.80;99.90
13205;DHT22;6667;52.634;9.226;2022-10-22T19:03:12;13.80;99.90
13205;DHT22;6667;52.634;9.226;2022-10-22T19:05:43;13.80;99.90
13205;DHT22;6667;52.634;9.226;2022-10-22T19:08:10;13.70;99.90
13205;DHT22;6667;52.634;9.226;2022-10-22T19:10:37;13.70;99.90
13205;DHT22;6667;52.634;9.226;2022-10-22T19:13:04;13.60;99.90
13205;DHT22;6667;52.634;9.226;2022-10-22T19:15:30;13.60;99.90
13205;DHT22;6667;52.634;9.226;2022-10-22T19:17:59;13.50;99.90
13205;DHT22;6667;52.634;9.226;2022-10-22T19:20:25;13.50;99.90
13205;DHT22;6667;52.634;9.226;2022-10-22T19:22:52;13.50;99.90
13205;DHT22;6667;52.634;9.226;2022-10-22T19:25:20;13.40;99.90
13205;DHT22;6667;52.634;9.226;2022-10-22T19:27:47;13.40;99.90
13205;DHT22;6667;52.634;9.226;2022-10-22T19:30:14;13.30;99.90
13205;DHT22;6667;52.634;9.226;2022-10-22T19:32:41;13.20;99.90
13205;DHT22;6667;52.634;9.226;2022-10-22T19:35:09;13.20;99.90
13205;DHT22;6667;52.634;9.226;2022-10-22T19:37:36;13.10;99.90
13205;DHT22;6667;52.634;9.226;2022-10-22T19:40:04;13.10;99.90
13205;DHT22;6667;52.634;9.226;2022-10-22T19:42:31;13.10;99.90
13205;DHT22;6667;52.634;9.226;2022-10-22T19:44:58;13.00;99.90
13205;DHT22;6667;52.634;9.226;2022-10-22T19:47:25;13.00;99.90
13205;DHT22;6667;52.634;9.226;2022-10-22T19:49:52;13.00;99.90
13205;DHT22;6667;52.634;9.226;2022-10-22T19:52:20;12.90;99.90
13205;DHT22;6667;52.634;9.226;2022-10-22T19:54:47;12.90;99.90
13205;DHT22;6667;52.634;9.226;2022-10-22T19:57:16;12.80;99.90
13205;DHT22;6667;52.634;9.226;2022-10-22T19:59:43;12.80;99.90
13205;DHT22;6667;52.634;9.226;2022-10-22T20:02:12;12.80;99.90
13205;DHT22;6667;52.634;9.226;2022-10-22T20:04:40;12.80;99.90
13205;DHT22;6667;52.634;9.226;2022-10-22T20:07:06;12.70;99.90
13205;DHT22;6667;52.634;9.226;2022-10-22T20:09:35;12.70;99.90
13205;DHT22;6667;52.634;9.226;2022-10-22T20:12:02;12.60;99.90
13205;DHT22;6667;52.634;9.226;2022-10-22T20:14:28;12.60;99.90
13205;DHT22;6667;52.634;9.226;2022-10-22T20:16:55;12.50;99.90
13205;DHT22;6667;52.634;9.226;2022-10-22T20:19:22;12.40;99.90
13205;DHT22;6667;52.634;9.226;2022-10-22T20:21:50;12.30;99.90
13205;DHT22;6667;52.634;9.226;2022-10-22T20:24:17;12.30;99.90
13205;DHT22;6667;52.634;9.226;2022-10-22T20:26:45;12.20;99.90
13205;DHT22;6667;52.634;9.226;2022-10-22T20:29:13;12.30;99.90
13205;DHT22;6667;52.634;9.226;2022-10-22T20:31:40;12.20;99.90
13205;DHT22;6667;52.634;9.226;2022-10-22T20:34:07;12.30;99.90
13205;DHT22;6667;52.634;9.226;2022-10-22T20:36:34;12.30;99.90
13205;DHT22;6667;52.634;9.226;2022-10-22T20:39:02;12.30;99.90
13205;DHT22;6667;52.634;9.226;2022-10-22T20:41:31;12.30;99.90
13205;DHT22;6667;52.634;9.226;2022-10-22T20:44:00;12.30;99.90
13205;DHT22;6667;52.634;9.226;2022-10-22T20:46:28;12.30;99.90
13205;DHT22;6667;52.634;9.226;2022-10-22T20:48:58;12.30;99.90
13205;DHT22;6667;52.634;9.226;2022-10-22T20:51:25;12.30;99.90
13205;DHT22;6667;52.634;9.226;2022-10-22T20:53:52;12.30;99.90
13205;DHT22;6667;52.634;9.226;2022-10-22T20:56:19;12.20;99.90
13205;DHT22;6667;52.634;9.226;2022-10-22T20:58:46;12.20;99.90
13205;DHT22;6667;52.634;9.226;2022-10-22T21:01:16;12.20;99.90
13205;DHT22;6667;52.634;9.226;2022-10-22T21:03:46;12.20;99.90
13205;DHT22;6667;52.634;9.226;2022-10-22T21:06:13;12.20;99.90
13205;DHT22;6667;52.634;9.226;2022-10-22T21:08:39;12.20;99.90
13205;DHT22;6667;52.634;9.226;2022-10-22T21:11:06;12.20;99.90
13205;DHT22;6667;52.634;9.226;2022-10-22T21:13:33;12.10;99.90
13205;DHT22;6667;52.634;9.226;2022-10-22T21:16:06;12.10;99.90
13205;DHT22;6667;52.634;9.226;2022-10-22T21:18:35;12.10;99.90
13205;DHT22;6667;52.634;9.226;2022-10-22T21:21:02;12.10;99.90
13205;DHT22;6667;52.634;9.226;2022-10-22T21:23:29;12.00;99.90
13205;DHT22;6667;52.634;9.226;2022-10-22T21:25:56;12.00;99.90
13205;DHT22;6667;52.634;9.226;2022-10-22T21:28:24;12.00;99.90
13205;DHT22;6667;52.634;9.226;2022-10-22T21:30:51;11.90;99.90
13205;DHT22;6667;52.634;9.226;2022-10-22T21:33:17;11.90;99.90
13205;DHT22;6667;52.634;9.226;2022-10-22T21:35:50;11.90;99.90
13205;DHT22;6667;52.634;9.226;2022-10-22T21:38:17;11.90;99.90
13205;DHT22;6667;52.634;9.226;2022-10-22T21:40:44;11.90;99.90
13205;DHT22;6667;52.634;9.226;2022-10-22T21:43:10;11.80;99.90
13205;DHT22;6667;52.634;9.226;2022-10-22T21:45:37;11.70;99.90
13205;DHT22;6667;52.634;9.226;2022-10-22T21:48:04;11.70;99.90
13205;DHT22;6667;52.634;9.226;2022-10-22T21:50:31;11.70;99.90
13205;DHT22;6667;52.634;9.226;2022-10-22T21:52:59;11.60;99.90
13205;DHT22;6667;52.634;9.226;2022-10-22T21:55:26;11.60;99.90
13205;DHT22;6667;52.634;9.226;2022-10-22T21:57:54;11.50;99.90
13205;DHT22;6667;52.634;9.226;2022-10-22T22:00:21;11.60;99.90
13205;DHT22;6667;52.634;9.226;2022-10-22T22:02:48;11.50;99.90
13205;DHT22;6667;52.634;9.226;2022-10-22T22:05:15;11.40;99.90
13205;DHT22;6667;52.634;9.226;2022-10-22T22:07:42;11.50;99.90
13205;DHT22;6667;52.634;9.226;2022-10-22T22:10:10;11.50;99.90
13205;DHT22;6667;52.634;9.226;2022-10-22T22:12:36;11.50;99.90
13205;DHT22;6667;52.634;9.226;2022-10-22T22:15:04;11.40;99.90
13205;DHT22;6667;52.634;9.226;2022-10-22T22:17:31;11.40;99.90
13205;DHT22;6667;52.634;9.226;2022-10-22T22:19:58;11.40;99.90
13205;DHT22;6667;52.634;9.226;2022-10-22T22:22:25;11.40;99.90
13205;DHT22;6667;52.634;9.226;2022-10-22T22:24:52;11.40;99.90
